Time,TemperatureF,DewpointF,PressureIn,WindDirection,WindDirectionDegrees,WindSpeedMPH,WindSpeedGustMPH,Humidity,HourlyPrecipIn,Conditions,Clouds,dailyrainin,SoftwareType,DateUTC
2013-01-16 00:00:00,24.2,17.1,29.72,SSE,157,9.3,15.0,74,0.00,CLR,SKC,0.00,WeatherDisplay:10.37,2013-01-16 06:00:00,
2013-01-16 00:05:00,24.1,17.0,29.72,WNW,292,9.3,17.3,74,0.00,CLR,SKC,0.00,WeatherDisplay:10.37,2013-01-16 06:05:00,
2013-01-16 00:10:00,24.0,16.9,29.71,SW,229,10.7,17.0,74,0.00,CLR,SKC,0.00,WeatherDisplay:10.37,2013-01-16 06:10:00,
2013-01-16 00:15:00,24.0,16.9,29.71,SSW,198,8.7,16.1,74,0.00,CLR,SKC,0.00,WeatherDisplay:10.37,2013-01-16 06:15:00,
2013-01-16 00:20:00,24.0,16.9,29.70,South,173,9.0,17.3,74,0.00,CLR,SKC,0.00,WeatherDisplay:10.37,2013-01-16 06:20:00,
2013-01-16 00:26:00,24.1,17.0,29.70,WSW,245,6.1,16.1,74,0.00,CLR,SKC,0.00,WeatherDisplay:10.37,2013-01-16 06:26:00,
2013-01-16 00:31:00,24.1,17.0,29.70,SSE,166,9.5,16.1,74,0.00,CLR,SKC,0.00,WeatherDisplay:10.37,2013-01-16 06:31:00,
2013-01-16 00:36:00,24.2,17.1,29.69,SE,135,8.7,17.3,74,0.00,CLR,SKC,0.00,WeatherDisplay:10.37,2013-01-16 06:36:00,
2013-01-16 00:41:00,24.4,17.3,29.69,SW,219,8.9,18.0,74,0.00,CLR,SKC,0.00,WeatherDisplay:10.37,2013-01-16 06:41:00,
2013-01-16 00:46:00,24.5,17.4,29.69,WSW,242,7.7,15.0,74,0.00,CLR,SKC,0.00,WeatherDisplay:10.37,2013-01-16 06:46:00,
2013-01-16 00:51:00,24.4,17.3,29.69,SSE,167,7.9,15.0,74,0.00,CLR,SKC,0.00,WeatherDisplay:10.37,2013-01-16 06:51:00,
2013-01-16 00:56:00,24.4,17.3,29.69,SW,236,10.3,17.3,74,0.00,CLR,SKC,0.00,WeatherDisplay:10.37,2013-01-16 06:56:00,
2013-01-16 01:01:00,24.3,17.2,29.69,WSW,243,9.0,16.1,74,0.00,CLR,SKC,0.00,WeatherDisplay:10.37,2013-01-16 07:01:00,
2013-01-16 01:06:00,24.2,17.1,29.69,SW,221,10.2,17.3,74,0.00,CLR,SKC,0.00,WeatherDisplay:10.37,2013-01-16 07:06:00,
2013-01-16 01:11:00,24.0,16.9,29.68,SE,141,9.6,13.0,74,0.00,CLR,SKC,0.00,WeatherDisplay:10.37,2013-01-16 07:11:00,
2013-01-16 01:16:00,23.9,16.8,29.68,SW,228,9.6,16.1,74,0.00,CLR,SKC,0.00,WeatherDisplay:10.37,2013-01-16 07:16:00,
2013-01-16 01:21:00,23.9,16.8,29.68,SW,220,8.5,15.0,74,0.00,CLR,SKC,0.00,WeatherDisplay:10.37,2013-01-16 07:21:00,
2013-01-16 01:26:00,23.8,16.7,29.68,South,178,7.8,18.4,74,0.00,CLR,SKC,0.00,WeatherDisplay:10.37,2013-01-16 07:26:00,
2013-01-16 01:31:00,23.5,16.4,29.68,WSW,249,6.2,11.5,74,0.00,CLR,SKC,0.00,WeatherDisplay:10.37,2013-01-16 07:31:00,
2013-01-16 01:36:00,23.4,16.6,29.67,SSW,200,6.1,12.0,75,0.00,CLR,SKC,0.00,WeatherDisplay:10.37,2013-01-16 07:36:00,
2013-01-16 01:41:00,23.5,16.7,29.67,South,188,7.6,12.7,75,0.00,CLR,SKC,0.00,WeatherDisplay:10.37,2013-01-16 07:41:00,
2013-01-16 01:46:00,23.5,16.7,29.66,SW,227,6.9,15.0,75,0.00,CLR,SKC,0.00,WeatherDisplay:10.37,2013-01-16 07:46:00,
2013-01-16 01:51:00,23.5,16.7,29.65,South,186,6.2,13.8,75,0.00,CLR,SKC,0.00,WeatherDisplay:10.37,2013-01-16 07:51:00,
2013-01-16 01:56:00,23.4,16.6,29.65,SW,215,8.5,14.0,75,0.00,CLR,SKC,0.00,WeatherDisplay:10.37,2013-01-16 07:56:00,
2013-01-16 02:01:00,23.5,16.7,29.65,SW,235,6.9,13.0,75,0.00,CLR,SKC,0.00,WeatherDisplay:10.37,2013-01-16 08:01:00,
2013-01-16 02:06:00,23.5,16.4,29.64,WSW,240,4.9,12.7,74,0.00,CLR,SKC,0.00,WeatherDisplay:10.37,2013-01-16 08:06:00,
2013-01-16 02:11:00,23.4,16.6,29.64,South,190,5.6,10.4,75,0.00,CLR,SKC,0.00,WeatherDisplay:10.37,2013-01-16 08:11:00,
2013-01-16 02:16:00,23.4,16.6,29.64,SW,233,8.5,12.0,75,0.00,CLR,SKC,0.00,WeatherDisplay:10.37,2013-01-16 08:16:00,
2013-01-16 02:21:00,23.6,16.8,29.64,SSW,194,9.2,14.0,75,0.00,CLR,SKC,0.00,WeatherDisplay:10.37,2013-01-16 08:21:00,
2013-01-16 02:26:00,23.8,17.0,29.63,South,171,6.6,15.0,75,0.00,CLR,SKC,0.00,WeatherDisplay:10.37,2013-01-16 08:26:00,
2013-01-16 02:31:00,23.9,17.1,29.63,SW,236,6.5,11.5,75,0.00,CLR,SKC,0.00,WeatherDisplay:10.37,2013-01-16 08:31:00,
2013-01-16 02:36:00,24.0,16.9,29.63,SW,224,8.0,14.0,74,0.00,CLR,SKC,0.00,WeatherDisplay:10.37,2013-01-16 08:36:00,
2013-01-16 02:41:00,24.1,17.0,29.64,West,262,6.1,10.4,74,0.00,CLR,SKC,0.00,WeatherDisplay:10.37,2013-01-16 08:41:00,
2013-01-16 02:46:00,24.0,16.9,29.62,South,190,6.0,15.0,74,0.00,CLR,SKC,0.00,WeatherDisplay:10.37,2013-01-16 08:46:00,
2013-01-16 02:51:00,23.9,16.8,29.62,SSE,150,10.4,15.0,74,0.00,CLR,SKC,0.00,WeatherDisplay:10.37,2013-01-16 08:51:00,
2013-01-16 02:56:00,23.8,16.7,29.63,WSW,257,8.9,15.0,74,0.00,CLR,SKC,0.00,WeatherDisplay:10.37,2013-01-16 08:56:00,
2013-01-16 03:01:00,23.8,16.7,29.63,SSE,163,8.7,17.3,74,0.00,CLR,SKC,0.00,WeatherDisplay:10.37,2013-01-16 09:01:00,
2013-01-16 03:06:00,23.9,17.1,29.62,WSW,251,10.4,16.1,75,0.00,CLR,SKC,0.00,WeatherDisplay:10.37,2013-01-16 09:06:00,
2013-01-16 03:11:00,23.9,16.8,29.61,SW,221,11.1,18.4,74,0.00,CLR,SKC,0.00,WeatherDisplay:10.37,2013-01-16 09:11:00,
2013-01-16 03:16:00,24.0,16.9,29.61,SW,217,10.3,17.3,74,0.00,CLR,SKC,0.00,WeatherDisplay:10.37,2013-01-16 09:16:00,
2013-01-16 03:21:00,24.0,16.9,29.60,ESE,122,9.6,19.6,74,0.00,SCT,SKC,0.00,WeatherDisplay:10.37,2013-01-16 09:21:00,
2013-01-16 03:26:00,24.0,16.9,29.60,SW,227,9.9,18.4,74,0.00,SCT,SKC,0.00,WeatherDisplay:10.37,2013-01-16 09:26:00,
2013-01-16 03:31:00,24.1,17.0,29.59,SW,216,9.5,17.3,74,0.00,SCT,SKC,0.00,WeatherDisplay:10.37,2013-01-16 09:31:00,
2013-01-16 03:36:00,24.2,17.1,29.59,SSW,211,7.4,12.7,74,0.00,SCT,SKC,0.00,WeatherDisplay:10.37,2013-01-16 09:36:00,
2013-01-16 03:41:00,24.2,17.1,29.59,SW,229,8.5,14.0,74,0.00,SCT,SKC,0.00,WeatherDisplay:10.37,2013-01-16 09:41:00,
2013-01-16 03:46:00,24.4,17.3,29.59,WSW,251,6.8,16.1,74,0.00,SCT,SKC,0.00,WeatherDisplay:10.37,2013-01-16 09:46:00,
2013-01-16 03:51:00,24.5,17.4,29.59,WSW,254,9.8,18.4,74,0.00,SCT,SKC,0.00,WeatherDisplay:10.37,2013-01-16 09:51:00,
2013-01-16 03:56:00,24.6,17.5,29.59,West,275,10.5,17.3,74,0.00,SCT,SKC,0.00,WeatherDisplay:10.37,2013-01-16 09:56:00,
2013-01-16 04:01:00,24.8,17.7,29.59,SW,236,9.9,18.4,74,0.00,OVC,SKC,0.00,WeatherDisplay:10.37,2013-01-16 10:01:00,
2013-01-16 04:06:00,24.8,17.7,29.58,SSW,194,8.9,13.8,74,0.00,OVC,SKC,0.00,WeatherDisplay:10.37,2013-01-16 10:06:00,
2013-01-16 04:11:00,24.9,17.8,29.58,SW,229,9.2,13.8,74,0.00,OVC,SKC,0.00,WeatherDisplay:10.37,2013-01-16 10:11:00,
2013-01-16 04:16:00,25.0,17.9,29.58,SW,231,9.4,12.7,74,0.00,OVC,SKC,0.00,WeatherDisplay:10.37,2013-01-16 10:16:00,
2013-01-16 04:21:00,25.1,18.0,29.58,South,189,8.2,18.4,74,0.00,OVC,SKC,0.00,WeatherDisplay:10.37,2013-01-16 10:21:00,
2013-01-16 04:26:00,25.1,18.0,29.57,WNW,290,9.2,19.6,74,0.00,OVC,SKC,0.00,WeatherDisplay:10.37,2013-01-16 10:26:00,
2013-01-16 04:31:00,25.3,18.2,29.57,SW,236,10.5,13.8,74,0.00,OVC,SKC,0.00,WeatherDisplay:10.37,2013-01-16 10:31:00,
2013-01-16 04:36:00,25.3,18.2,29.56,SE,130,8.9,19.6,74,0.00,OVC,SKC,0.00,WeatherDisplay:10.37,2013-01-16 10:36:00,
2013-01-16 04:41:00,25.4,18.3,29.56,SW,217,11.5,17.3,74,0.00,OVC,SKC,0.00,WeatherDisplay:10.37,2013-01-16 10:41:00,
2013-01-16 04:46:00,25.4,18.3,29.55,SW,230,9.4,16.1,74,0.00,OVC,SKC,0.00,WeatherDisplay:10.37,2013-01-16 10:46:00,
2013-01-16 04:51:00,25.5,18.4,29.54,SW,219,8.7,17.3,74,0.00,OVC,SKC,0.00,WeatherDisplay:10.37,2013-01-16 10:51:00,
2013-01-16 04:56:00,25.4,18.6,29.54,SW,236,8.4,15.0,75,0.00,OVC,SKC,0.00,WeatherDisplay:10.37,2013-01-16 10:56:00,
2013-01-16 05:01:00,25.3,18.2,29.54,WSW,248,8.8,14.0,74,0.00,OVC,SKC,0.00,WeatherDisplay:10.37,2013-01-16 11:01:00,
2013-01-16 05:06:00,25.2,18.4,29.54,West,262,9.2,17.3,75,0.00,OVC,SKC,0.00,WeatherDisplay:10.37,2013-01-16 11:06:00,
2013-01-16 05:11:00,25.1,18.3,29.53,WSW,252,8.8,18.4,75,0.00,OVC,SKC,0.00,WeatherDisplay:10.37,2013-01-16 11:11:00,
2013-01-16 05:16:00,25.1,18.3,29.54,SSW,196,12.3,18.4,75,0.00,OVC,SKC,0.00,WeatherDisplay:10.37,2013-01-16 11:16:00,
2013-01-16 05:21:00,25.1,18.3,29.53,WSW,238,9.2,16.1,75,0.00,OVC,SKC,0.00,WeatherDisplay:10.37,2013-01-16 11:21:00,
2013-01-16 05:26:00,25.2,18.4,29.53,West,259,10.7,15.0,75,0.00,OVC,SKC,0.00,WeatherDisplay:10.37,2013-01-16 11:26:00,
2013-01-16 05:31:00,25.2,18.4,29.53,WSW,240,13.0,16.1,75,0.00,OVC,SKC,0.00,WeatherDisplay:10.37,2013-01-16 11:31:00,
2013-01-16 05:36:00,25.3,18.5,29.53,SW,226,8.7,15.0,75,0.00,OVC,SKC,0.00,WeatherDisplay:10.37,2013-01-16 11:36:00,
2013-01-16 05:41:00,25.3,18.5,29.53,SSW,208,8.5,16.1,75,0.00,OVC,SKC,0.00,WeatherDisplay:10.37,2013-01-16 11:41:00,
2013-01-16 05:46:00,25.4,18.6,29.53,South,188,9.3,15.0,75,0.00,OVC,SKC,0.00,WeatherDisplay:10.37,2013-01-16 11:46:00,
2013-01-16 05:51:00,25.3,18.5,29.53,WSW,251,7.9,13.0,75,0.00,OVC,SKC,0.00,WeatherDisplay:10.37,2013-01-16 11:51:00,
2013-01-16 05:56:00,25.4,18.6,29.53,WSW,244,5.9,12.0,75,0.00,OVC,SKC,0.00,WeatherDisplay:10.37,2013-01-16 11:56:00,
2013-01-16 06:01:00,25.4,18.6,29.54,WSW,238,5.4,8.1,75,0.00,OVC,SKC,0.00,WeatherDisplay:10.37,2013-01-16 12:01:00,
2013-01-16 06:06:00,25.4,18.6,29.54,NW,317,6.1,10.4,75,0.00,OVC,SKC,0.00,WeatherDisplay:10.37,2013-01-16 12:06:00,
2013-01-16 06:11:00,25.4,18.6,29.53,WSW,247,7.6,10.4,75,0.00,OVC,SKC,0.00,WeatherDisplay:10.37,2013-01-16 12:11:00,
2013-01-16 06:16:00,25.4,18.6,29.54,West,260,6.0,9.2,75,0.00,OVC,SKC,0.00,WeatherDisplay:10.37,2013-01-16 12:16:00,
2013-01-16 06:21:00,25.4,18.6,29.54,SW,232,5.0,10.0,75,0.00,OVC,SKC,0.00,WeatherDisplay:10.37,2013-01-16 12:21:00,
2013-01-16 06:26:00,25.3,18.5,29.54,WSW,246,7.2,11.5,75,0.00,OVC,SKC,0.00,WeatherDisplay:10.37,2013-01-16 12:26:00,
2013-01-16 06:31:00,25.2,18.4,29.54,SSE,166,5.1,11.5,75,0.00,OVC,SKC,0.00,WeatherDisplay:10.37,2013-01-16 12:31:00,
2013-01-16 06:36:00,25.3,18.5,29.54,NW,325,5.3,9.2,75,0.00,OVC,SKC,0.00,WeatherDisplay:10.37,2013-01-16 12:36:00,
2013-01-16 06:41:00,25.4,18.6,29.54,WSW,250,5.6,10.4,75,0.00,OVC,SKC,0.00,WeatherDisplay:10.37,2013-01-16 12:41:00,
2013-01-16 06:46:00,25.5,19.0,29.54,West,260,5.8,10.4,76,0.00,OVC,SKC,0.00,WeatherDisplay:10.37,2013-01-16 12:46:00,
2013-01-16 06:51:00,25.6,19.1,29.54,WSW,242,5.9,10.4,76,0.00,OVC,SKC,0.00,WeatherDisplay:10.37,2013-01-16 12:51:00,
2013-01-16 06:56:00,25.6,19.1,29.54,West,269,6.7,13.0,76,0.00,OVC,SKC,0.00,WeatherDisplay:10.37,2013-01-16 12:56:00,
2013-01-16 07:01:00,25.6,19.1,29.54,WNW,302,5.8,11.5,76,0.00,-SN,SKC,0.00,WeatherDisplay:10.37,2013-01-16 13:01:00,
2013-01-16 07:06:00,25.7,19.5,29.54,West,277,7.1,13.0,77,0.00,-SN,SKC,0.00,WeatherDisplay:10.37,2013-01-16 13:06:00,
2013-01-16 07:11:00,25.7,19.5,29.55,WSW,246,4.9,8.1,77,0.00,-SN,SKC,0.00,WeatherDisplay:10.37,2013-01-16 13:11:00,
2013-01-16 07:16:00,25.7,19.5,29.55,SSW,198,4.9,7.0,77,0.00,-SN,SKC,0.00,WeatherDisplay:10.37,2013-01-16 13:16:00,
2013-01-16 07:21:00,25.7,19.5,29.55,WNW,292,4.0,8.1,77,0.00,-SN,SKC,0.00,WeatherDisplay:10.37,2013-01-16 13:21:00,
2013-01-16 07:26:00,25.7,19.5,29.55,WSW,247,4.7,7.0,77,0.00,-SN,SKC,0.00,WeatherDisplay:10.37,2013-01-16 13:26:00,
2013-01-16 07:31:00,25.7,19.5,29.54,SW,236,5.3,8.1,77,0.00,-SN,SKC,0.00,WeatherDisplay:10.37,2013-01-16 13:31:00,
2013-01-16 07:36:00,25.8,19.6,29.54,SSW,210,4.9,9.2,77,0.00,-SN,SKC,0.00,WeatherDisplay:10.37,2013-01-16 13:36:00,
2013-01-16 07:41:00,25.9,19.7,29.54,WNW,298,5.3,7.0,77,0.00,OVC,SKC,0.00,WeatherDisplay:10.37,2013-01-16 13:41:00,
2013-01-16 07:46:00,26.0,20.1,29.54,West,265,5.6,11.5,78,0.00,OVC,SKC,0.00,WeatherDisplay:10.37,2013-01-16 13:46:00,
2013-01-16 07:51:00,26.2,20.3,29.54,West,275,5.5,8.1,78,0.00,OVC,SKC,0.00,WeatherDisplay:10.37,2013-01-16 13:51:00,
2013-01-16 07:56:00,26.2,20.3,29.55,West,270,5.3,8.1,78,0.00,OVC,SKC,0.00,WeatherDisplay:10.37,2013-01-16 13:56:00,
2013-01-16 08:01:00,26.3,20.4,29.55,NW,317,5.5,8.1,78,0.00,OVC,SKC,0.00,WeatherDisplay:10.37,2013-01-16 14:01:00,
2013-01-16 08:06:00,26.5,20.3,29.55,WSW,248,5.7,9.2,77,0.00,OVC,SKC,0.00,WeatherDisplay:10.37,2013-01-16 14:06:00,
2013-01-16 08:11:00,26.7,20.5,29.55,SW,232,5.3,7.0,77,0.00,OVC,SKC,0.00,WeatherDisplay:10.37,2013-01-16 14:11:00,
2013-01-16 08:16:00,26.9,20.7,29.54,WNW,298,4.8,7.0,77,0.00,OVC,SKC,0.00,WeatherDisplay:10.37,2013-01-16 14:16:00,
2013-01-16 08:21:00,27.0,20.7,29.55,NW,304,6.0,7.0,77,0.00,OVC,SKC,0.00,WeatherDisplay:10.37,2013-01-16 14:21:00,
2013-01-16 08:26:00,27.0,20.7,29.55,SW,217,4.8,7.0,77,0.00,OVC,SKC,0.00,WeatherDisplay:10.37,2013-01-16 14:26:00,
2013-01-16 08:31:00,27.2,20.9,29.55,WSW,248,4.4,9.2,77,0.00,OVC,SKC,0.00,WeatherDisplay:10.37,2013-01-16 14:31:00,
2013-01-16 08:36:00,27.3,21.0,29.56,WNW,284,5.7,8.1,77,0.00,OVC,SKC,0.00,WeatherDisplay:10.37,2013-01-16 14:36:00,
2013-01-16 08:41:00,27.2,21.2,29.56,NW,313,4.5,7.0,78,0.00,OVC,SKC,0.00,WeatherDisplay:10.37,2013-01-16 14:41:00,
2013-01-16 08:46:00,27.1,21.2,29.56,West,259,3.7,9.2,78,0.00,OVC,SKC,0.00,WeatherDisplay:10.37,2013-01-16 14:46:00,
2013-01-16 08:51:00,27.0,21.1,29.56,WNW,291,3.5,5.8,78,0.00,OVC,SKC,0.00,WeatherDisplay:10.37,2013-01-16 14:51:00,
2013-01-16 08:56:00,27.1,21.2,29.56,WNW,302,4.4,7.0,78,0.00,OVC,SKC,0.00,WeatherDisplay:10.37,2013-01-16 14:56:00,
2013-01-16 09:01:00,27.2,21.2,29.57,WSW,253,3.9,6.9,78,0.00,-SN,SKC,0.00,WeatherDisplay:10.37,2013-01-16 15:01:00,
2013-01-16 09:06:00,27.4,21.4,29.57,West,279,4.2,6.0,78,0.00,-SN,SKC,0.00,WeatherDisplay:10.37,2013-01-16 15:06:00,
2013-01-16 09:12:00,27.6,21.9,29.57,WNW,295,5.1,7.0,79,0.00,-SN,SKC,0.00,WeatherDisplay:10.37,2013-01-16 15:12:00,
2013-01-16 09:17:00,28.0,22.0,29.57,West,273,5.4,8.1,78,0.00,-SN,SKC,0.00,WeatherDisplay:10.37,2013-01-16 15:17:00,
2013-01-16 09:22:00,28.3,22.3,29.57,WSW,248,4.1,5.8,78,0.00,OVC,SKC,0.00,WeatherDisplay:10.37,2013-01-16 15:22:00,
2013-01-16 09:27:00,28.6,22.6,29.57,SW,226,4.1,7.0,78,0.00,OVC,SKC,0.00,WeatherDisplay:10.37,2013-01-16 15:27:00,
2013-01-16 09:32:00,28.8,22.8,29.57,West,279,5.7,8.0,78,0.00,OVC,SKC,0.00,WeatherDisplay:10.37,2013-01-16 15:32:00,
2013-01-16 09:37:00,29.2,23.2,29.57,West,275,5.3,8.1,78,0.00,OVC,SKC,0.00,WeatherDisplay:10.37,2013-01-16 15:37:00,
2013-01-16 09:42:00,29.4,23.4,29.57,WSW,250,3.9,6.9,78,0.00,OVC,SKC,0.00,WeatherDisplay:10.37,2013-01-16 15:42:00,
2013-01-16 09:47:00,29.6,23.6,29.57,WNW,288,3.9,5.8,78,0.00,OVC,SKC,0.00,WeatherDisplay:10.37,2013-01-16 15:47:00,
2013-01-16 09:52:00,29.9,23.9,29.58,WNW,288,5.4,8.0,78,0.00,OVC,SKC,0.00,WeatherDisplay:10.37,2013-01-16 15:52:00,
2013-01-16 09:57:00,30.3,24.3,29.58,West,281,5.7,8.1,78,0.00,OVC,SKC,0.00,WeatherDisplay:10.37,2013-01-16 15:57:00,
2013-01-16 10:02:00,30.9,24.5,29.58,SSW,204,4.9,6.0,77,0.00,OVC,SKC,0.00,WeatherDisplay:10.37,2013-01-16 16:02:00,
2013-01-16 10:07:00,31.4,25.0,29.58,WNW,296,5.3,8.1,77,0.00,OVC,SKC,0.00,WeatherDisplay:10.37,2013-01-16 16:07:00,
2013-01-16 10:12:00,31.9,25.5,29.58,WNW,283,6.1,9.2,77,0.00,OVC,SKC,0.00,WeatherDisplay:10.37,2013-01-16 16:12:00,
2013-01-16 10:17:00,32.2,25.8,29.58,WNW,293,6.6,9.2,77,0.00,OVC,SKC,0.00,WeatherDisplay:10.37,2013-01-16 16:17:00,
2013-01-16 10:22:00,32.8,26.4,29.58,WNW,290,6.6,9.2,77,0.00,OVC,SKC,0.00,WeatherDisplay:10.37,2013-01-16 16:22:00,
2013-01-16 10:27:00,32.7,26.0,29.58,WNW,296,5.4,8.1,76,0.00,OVC,SKC,0.00,WeatherDisplay:10.37,2013-01-16 16:27:00,
2013-01-16 10:32:00,32.9,26.5,29.58,WNW,288,6.1,8.1,77,0.00,OVC,SKC,0.00,WeatherDisplay:10.37,2013-01-16 16:32:00,
2013-01-16 10:38:00,34.1,27.3,29.58,WNW,286,6.9,10.4,76,0.00,OVC,SKC,0.00,WeatherDisplay:10.37,2013-01-16 16:38:00,
2013-01-16 10:43:00,34.8,28.0,29.58,WNW,288,6.7,10.4,76,0.00,BKN,SKC,0.00,WeatherDisplay:10.37,2013-01-16 16:43:00,
2013-01-16 10:48:00,35.1,28.3,29.58,WNW,284,6.7,9.2,76,0.00,BKN,SKC,0.00,WeatherDisplay:10.37,2013-01-16 16:48:00,
2013-01-16 10:53:00,35.6,28.5,29.58,West,277,9.2,12.0,75,0.00,BKN,SKC,0.00,WeatherDisplay:10.37,2013-01-16 16:53:00,
2013-01-16 10:58:00,36.0,28.8,29.58,West,278,10.2,12.0,75,0.00,BKN,SKC,0.00,WeatherDisplay:10.37,2013-01-16 16:58:00,
2013-01-16 11:03:00,36.4,29.2,29.58,WNW,286,10.7,13.0,75,0.00,BKN,SKC,0.00,WeatherDisplay:10.37,2013-01-16 17:03:00,
2013-01-16 11:08:00,36.5,29.3,29.58,West,281,10.5,12.7,75,0.00,BKN,SKC,0.00,WeatherDisplay:10.37,2013-01-16 17:08:00,
2013-01-16 11:13:00,36.9,29.7,29.58,WNW,284,11.3,13.0,75,0.00,BKN,SKC,0.00,WeatherDisplay:10.37,2013-01-16 17:13:00,
2013-01-16 11:18:00,37.2,30.0,29.58,West,277,9.5,12.0,75,0.00,BKN,SKC,0.00,WeatherDisplay:10.37,2013-01-16 17:18:00,
2013-01-16 11:23:00,37.5,30.3,29.58,WNW,284,7.8,10.4,75,0.00,SCT,SKC,0.00,WeatherDisplay:10.37,2013-01-16 17:23:00,
2013-01-16 11:28:00,37.6,30.1,29.58,WNW,285,8.4,11.5,74,0.00,SCT,SKC,0.00,WeatherDisplay:10.37,2013-01-16 17:28:00,
2013-01-16 11:33:00,37.8,30.3,29.58,West,278,10.6,12.0,74,0.00,SCT,SKC,0.00,WeatherDisplay:10.37,2013-01-16 17:33:00,
2013-01-16 11:38:00,38.1,30.5,29.58,WNW,283,8.6,10.4,74,0.00,SCT,SKC,0.00,WeatherDisplay:10.37,2013-01-16 17:38:00,
2013-01-16 11:43:00,38.3,30.7,29.58,West,279,11.2,13.0,74,0.00,SCT,SKC,0.00,WeatherDisplay:10.37,2013-01-16 17:43:00,
2013-01-16 11:48:00,38.1,30.5,29.58,West,279,10.6,14.0,74,0.00,SCT,SKC,0.00,WeatherDisplay:10.37,2013-01-16 17:48:00,
2013-01-16 11:53:00,37.8,30.3,29.58,WNW,284,10.0,12.0,74,0.00,SCT,SKC,0.00,WeatherDisplay:10.37,2013-01-16 17:53:00,
2013-01-16 11:58:00,37.8,30.3,29.58,WNW,286,9.5,11.5,74,0.00,SCT,SKC,0.00,WeatherDisplay:10.37,2013-01-16 17:58:00,
2013-01-16 12:03:00,37.8,30.3,29.59,West,281,9.7,12.0,74,0.00,BKN,SKC,0.00,WeatherDisplay:10.37,2013-01-16 18:03:00,
2013-01-16 12:08:00,37.9,30.4,29.59,West,279,10.7,13.0,74,0.00,BKN,SKC,0.00,WeatherDisplay:10.37,2013-01-16 18:08:00,
2013-01-16 12:13:00,37.9,30.4,29.59,WNW,291,11.3,13.8,74,0.00,BKN,SKC,0.00,WeatherDisplay:10.37,2013-01-16 18:13:00,
2013-01-16 12:18:00,38.0,30.4,29.59,WNW,292,11.3,14.0,74,0.00,BKN,SKC,0.00,WeatherDisplay:10.37,2013-01-16 18:18:00,
2013-01-16 12:23:00,38.0,30.4,29.59,WNW,285,10.5,13.8,74,0.00,OVC,SKC,0.00,WeatherDisplay:10.37,2013-01-16 18:23:00,
2013-01-16 12:28:00,38.1,30.5,29.58,West,281,10.3,12.0,74,0.00,OVC,SKC,0.00,WeatherDisplay:10.37,2013-01-16 18:28:00,
2013-01-16 12:33:00,38.5,30.9,29.59,WNW,292,9.0,14.0,74,0.00,OVC,SKC,0.00,WeatherDisplay:10.37,2013-01-16 18:33:00,
2013-01-16 12:38:00,38.5,30.9,29.58,WNW,292,8.5,12.7,74,0.00,OVC,SKC,0.00,WeatherDisplay:10.37,2013-01-16 18:38:00,
2013-01-16 12:43:00,38.4,30.8,29.58,WNW,294,10.3,14.0,74,0.00,OVC,SKC,0.00,WeatherDisplay:10.37,2013-01-16 18:43:00,
2013-01-16 12:48:00,38.8,31.2,29.58,WNW,292,7.0,11.5,74,0.00,OVC,SKC,0.00,WeatherDisplay:10.37,2013-01-16 18:48:00,
2013-01-16 12:53:00,39.2,31.6,29.58,WNW,294,8.1,11.5,74,0.00,OVC,SKC,0.00,WeatherDisplay:10.37,2013-01-16 18:53:00,
2013-01-16 12:58:00,39.2,31.3,29.58,WNW,292,9.3,11.5,73,0.00,OVC,SKC,0.00,WeatherDisplay:10.37,2013-01-16 18:58:00,
2013-01-16 13:03:00,39.3,31.7,29.58,WNW,290,10.9,13.0,74,0.00,SCT,SKC,0.00,WeatherDisplay:10.37,2013-01-16 19:03:00,
2013-01-16 13:08:00,39.8,31.8,29.58,WNW,290,10.1,13.8,73,0.00,SCT,SKC,0.00,WeatherDisplay:10.37,2013-01-16 19:08:00,
2013-01-16 13:13:00,39.4,31.5,29.58,WNW,300,9.2,11.5,73,0.00,SCT,SKC,0.00,WeatherDisplay:10.37,2013-01-16 19:13:00,
2013-01-16 13:18:00,39.3,31.4,29.58,WNW,293,8.8,11.5,73,0.00,SCT,SKC,0.00,WeatherDisplay:10.37,2013-01-16 19:18:00,
2013-01-16 13:23:00,39.1,31.2,29.58,WNW,300,8.8,11.5,73,0.00,BKN,SKC,0.00,WeatherDisplay:10.37,2013-01-16 19:23:00,
2013-01-16 13:28:00,38.4,30.8,29.59,WNW,301,8.2,10.4,74,0.00,BKN,SKC,0.00,WeatherDisplay:10.37,2013-01-16 19:28:00,
2013-01-16 13:33:00,37.9,30.7,29.59,WNW,300,7.8,9.2,75,0.00,BKN,SKC,0.00,WeatherDisplay:10.37,2013-01-16 19:33:00,
2013-01-16 13:38:00,37.7,30.5,29.59,WNW,298,7.1,9.2,75,0.00,BKN,SKC,0.00,WeatherDisplay:10.37,2013-01-16 19:38:00,
2013-01-16 13:43:00,37.4,30.5,29.59,WNW,299,6.0,8.0,76,0.00,OVC,SKC,0.00,WeatherDisplay:10.37,2013-01-16 19:43:00,
2013-01-16 13:48:00,37.3,30.4,29.59,WNW,298,5.9,9.2,76,0.00,OVC,SKC,0.00,WeatherDisplay:10.37,2013-01-16 19:48:00,
2013-01-16 13:53:00,37.3,30.4,29.59,WNW,300,4.6,8.1,76,0.00,OVC,SKC,0.00,WeatherDisplay:10.37,2013-01-16 19:53:00,
2013-01-16 13:58:00,37.4,30.5,29.60,NW,311,4.8,7.0,76,0.00,OVC,SKC,0.00,WeatherDisplay:10.37,2013-01-16 19:58:00,
2013-01-16 14:03:00,37.3,30.4,29.60,WNW,300,7.2,9.2,76,0.00,OVC,SKC,0.00,WeatherDisplay:10.37,2013-01-16 20:03:00,
2013-01-16 14:08:00,37.0,30.1,29.60,NW,307,4.4,6.9,76,0.00,OVC,SKC,0.00,WeatherDisplay:10.37,2013-01-16 20:08:00,
2013-01-16 14:13:00,36.7,30.2,29.61,NW,306,5.0,6.0,77,0.00,OVC,SKC,0.00,WeatherDisplay:10.37,2013-01-16 20:13:00,
2013-01-16 14:18:00,36.4,29.9,29.61,NW,306,5.7,8.1,77,0.00,OVC,SKC,0.00,WeatherDisplay:10.37,2013-01-16 20:18:00,
2013-01-16 14:23:00,36.2,30.0,29.61,NW,304,7.7,10.4,78,0.00,OVC,SKC,0.00,WeatherDisplay:10.37,2013-01-16 20:23:00,
2013-01-16 14:28:00,35.9,29.7,29.61,WNW,298,5.2,7.0,78,0.00,OVC,SKC,0.00,WeatherDisplay:10.37,2013-01-16 20:28:00,
2013-01-16 14:33:00,35.5,29.3,29.62,NW,304,6.8,9.2,78,0.00,OVC,SKC,0.00,WeatherDisplay:10.37,2013-01-16 20:33:00,
2013-01-16 14:39:00,35.2,29.3,29.62,NW,307,5.1,7.0,79,0.00,OVC,SKC,0.00,WeatherDisplay:10.37,2013-01-16 20:39:00,
2013-01-16 14:44:00,35.0,29.1,29.62,NW,305,4.6,6.9,79,0.00,OVC,SKC,0.00,WeatherDisplay:10.37,2013-01-16 20:44:00,
2013-01-16 14:49:00,34.8,29.0,29.63,WNW,302,5.2,7.0,79,0.00,OVC,SKC,0.00,WeatherDisplay:10.37,2013-01-16 20:49:00,
2013-01-16 14:54:00,34.6,28.8,29.63,WNW,299,3.7,5.0,79,0.00,OVC,SKC,0.00,WeatherDisplay:10.37,2013-01-16 20:54:00,
2013-01-16 14:59:00,34.4,28.9,29.63,WNW,302,3.4,8.1,80,0.00,OVC,SKC,0.00,WeatherDisplay:10.37,2013-01-16 20:59:00,
2013-01-16 15:04:00,34.3,28.8,29.63,NW,304,4.2,5.8,80,0.00,-RA,SKC,0.00,WeatherDisplay:10.37,2013-01-16 21:04:00,
2013-01-16 15:09:00,34.2,28.7,29.63,WNW,302,4.8,6.0,80,0.00,-RA,SKC,0.00,WeatherDisplay:10.37,2013-01-16 21:09:00,
2013-01-16 15:14:00,34.1,28.6,29.64,NW,306,4.9,7.0,80,0.00,-RA,SKC,0.00,WeatherDisplay:10.37,2013-01-16 21:14:00,
2013-01-16 15:19:00,33.9,28.7,29.64,NW,304,4.2,6.9,81,0.00,-RA,SKC,0.00,WeatherDisplay:10.37,2013-01-16 21:19:00,
2013-01-16 15:24:00,33.8,28.6,29.65,WNW,302,4.5,5.8,81,0.00,OVC,SKC,0.00,WeatherDisplay:10.37,2013-01-16 21:24:00,
2013-01-16 15:29:00,33.7,28.5,29.65,WNW,303,5.1,7.0,81,0.00,OVC,SKC,0.00,WeatherDisplay:10.37,2013-01-16 21:29:00,
2013-01-16 15:34:00,33.6,28.4,29.66,WNW,297,6.8,10.4,81,0.00,OVC,SKC,0.00,WeatherDisplay:10.37,2013-01-16 21:34:00,
2013-01-16 15:39:00,33.5,28.3,29.66,NW,304,5.4,9.2,81,0.00,OVC,SKC,0.00,WeatherDisplay:10.37,2013-01-16 21:39:00,
2013-01-16 15:45:00,33.4,28.2,29.67,WNW,300,5.3,8.0,81,0.00,OVC,SKC,0.00,WeatherDisplay:10.37,2013-01-16 21:45:00,
2013-01-16 15:50:00,33.4,28.2,29.67,NW,306,6.6,8.1,81,0.00,OVC,SKC,0.00,WeatherDisplay:10.37,2013-01-16 21:50:00,
2013-01-16 15:55:00,33.4,28.2,29.67,WNW,303,7.0,10.4,81,0.00,OVC,SKC,0.00,WeatherDisplay:10.37,2013-01-16 21:55:00,
2013-01-16 16:00:00,33.3,27.8,29.68,WNW,303,6.1,9.0,80,0.00,OVC,SKC,0.00,WeatherDisplay:10.37,2013-01-16 22:00:00,
2013-01-16 16:05:00,33.2,27.7,29.68,NW,304,6.6,9.2,80,0.00,OVC,SKC,0.00,WeatherDisplay:10.37,2013-01-16 22:05:00,
2013-01-16 16:10:00,33.0,27.8,29.69,WNW,296,7.5,10.4,81,0.00,OVC,SKC,0.00,WeatherDisplay:10.37,2013-01-16 22:10:00,
2013-01-16 16:15:00,32.9,27.7,29.70,WNW,297,7.3,9.2,81,0.00,OVC,SKC,0.00,WeatherDisplay:10.37,2013-01-16 22:15:00,
2013-01-16 16:20:00,32.9,27.7,29.70,WNW,299,6.8,9.2,81,0.00,OVC,SKC,0.00,WeatherDisplay:10.37,2013-01-16 22:20:00,
2013-01-16 16:25:00,32.8,27.3,29.71,WNW,301,7.3,9.2,80,0.00,-SN,SKC,0.00,WeatherDisplay:10.37,2013-01-16 22:25:00,
2013-01-16 16:30:00,32.8,27.3,29.71,WNW,300,7.4,9.2,80,0.00,-SN,SKC,0.00,WeatherDisplay:10.37,2013-01-16 22:30:00,
2013-01-16 16:35:00,32.8,27.3,29.72,NW,309,5.4,8.1,80,0.00,-SN,SKC,0.00,WeatherDisplay:10.37,2013-01-16 22:35:00,
2013-01-16 16:40:00,32.6,27.1,29.73,WNW,291,5.4,9.0,80,0.00,-SN,SKC,0.00,WeatherDisplay:10.37,2013-01-16 22:40:00,
2013-01-16 16:45:00,32.6,26.8,29.73,WNW,303,7.5,11.5,79,0.00,OVC,SKC,0.00,WeatherDisplay:10.37,2013-01-16 22:45:00,
2013-01-16 16:50:00,32.5,26.7,29.74,NW,311,4.6,8.1,79,0.00,OVC,SKC,0.00,WeatherDisplay:10.37,2013-01-16 22:50:00,
2013-01-16 16:55:00,32.3,26.5,29.74,WNW,289,6.8,9.2,79,0.00,OVC,SKC,0.00,WeatherDisplay:10.37,2013-01-16 22:55:00,
2013-01-16 17:00:00,32.3,26.2,29.74,WNW,303,5.9,8.1,78,0.00,OVC,SKC,0.00,WeatherDisplay:10.37,2013-01-16 23:00:00,
2013-01-16 17:05:00,32.1,26.3,29.75,WNW,297,7.2,9.2,79,0.00,OVC,SKC,0.00,WeatherDisplay:10.37,2013-01-16 23:05:00,
2013-01-16 17:10:00,32.0,26.2,29.75,NW,306,7.1,11.0,79,0.00,OVC,SKC,0.00,WeatherDisplay:10.37,2013-01-16 23:10:00,
2013-01-16 17:15:00,32.0,25.9,29.76,NW,304,7.8,10.4,78,0.00,OVC,SKC,0.00,WeatherDisplay:10.37,2013-01-16 23:15:00,
2013-01-16 17:20:00,31.9,25.8,29.76,WNW,297,10.8,14.0,78,0.00,OVC,SKC,0.00,WeatherDisplay:10.37,2013-01-16 23:20:00,
2013-01-16 17:25:00,31.9,25.5,29.77,West,277,11.6,13.8,77,0.00,OVC,SKC,0.00,WeatherDisplay:10.37,2013-01-16 23:25:00,
2013-01-16 17:30:00,31.7,25.3,29.77,NW,304,10.6,14.0,77,0.00,OVC,SKC,0.00,WeatherDisplay:10.37,2013-01-16 23:30:00,
2013-01-16 17:35:00,31.4,25.0,29.77,NW,306,8.5,10.4,77,0.00,OVC,SKC,0.00,WeatherDisplay:10.37,2013-01-16 23:35:00,
2013-01-16 17:40:00,31.1,24.7,29.78,NW,306,9.2,12.7,77,0.00,OVC,SKC,0.00,WeatherDisplay:10.37,2013-01-16 23:40:00,
2013-01-16 17:45:00,30.9,24.5,29.78,WNW,285,9.5,12.0,77,0.00,OVC,SKC,0.00,WeatherDisplay:10.37,2013-01-16 23:45:00,
2013-01-16 17:50:00,30.6,24.2,29.78,WNW,301,10.4,14.0,77,0.00,OVC,SKC,0.00,WeatherDisplay:10.37,2013-01-16 23:50:00,
2013-01-16 17:55:00,30.5,23.8,29.79,WNW,294,11.3,13.0,76,0.00,OVC,SKC,0.00,WeatherDisplay:10.37,2013-01-16 23:55:00,
2013-01-16 18:00:00,30.2,23.5,29.79,WNW,284,7.2,12.7,76,0.00,OVC,SKC,0.00,WeatherDisplay:10.37,2013-01-17 00:00:00,
2013-01-16 18:05:00,30.0,23.4,29.79,WNW,287,6.9,10.4,76,0.00,BKN,SKC,0.00,WeatherDisplay:10.37,2013-01-17 00:05:00,
2013-01-16 18:10:00,30.0,23.4,29.80,NW,305,11.1,14.0,76,0.00,BKN,SKC,0.00,WeatherDisplay:10.37,2013-01-17 00:10:00,
2013-01-16 18:15:00,29.8,23.2,29.81,NW,304,7.2,10.4,76,0.00,BKN,SKC,0.00,WeatherDisplay:10.37,2013-01-17 00:15:00,
2013-01-16 18:20:00,29.8,23.2,29.81,NNW,340,3.6,6.9,76,0.00,BKN,SKC,0.00,WeatherDisplay:10.37,2013-01-17 00:20:00,
2013-01-16 18:25:00,29.6,23.0,29.81,NW,305,4.8,7.0,76,0.00,SCT,SKC,0.00,WeatherDisplay:10.37,2013-01-17 00:25:00,
2013-01-16 18:30:00,29.6,23.0,29.82,WNW,297,7.4,9.2,76,0.00,SCT,SKC,0.00,WeatherDisplay:10.37,2013-01-17 00:30:00,
2013-01-16 18:35:00,29.4,22.8,29.83,WNW,284,8.1,10.4,76,0.00,SCT,SKC,0.00,WeatherDisplay:10.37,2013-01-17 00:35:00,
2013-01-16 18:40:00,29.3,22.7,29.83,WNW,286,8.9,11.0,76,0.00,SCT,SKC,0.00,WeatherDisplay:10.37,2013-01-17 00:40:00,
2013-01-16 18:45:00,29.0,22.4,29.83,WNW,286,8.2,10.4,76,0.00,CLR,SKC,0.00,WeatherDisplay:10.37,2013-01-17 00:45:00,
2013-01-16 18:50:00,28.7,22.1,29.83,WNW,290,9.7,12.0,76,0.00,CLR,SKC,0.00,WeatherDisplay:10.37,2013-01-17 00:50:00,
2013-01-16 18:55:00,28.4,21.8,29.83,NW,304,7.8,10.4,76,0.00,CLR,SKC,0.00,WeatherDisplay:10.37,2013-01-17 00:55:00,
2013-01-16 19:00:00,28.3,21.7,29.84,NW,305,7.8,11.5,76,0.00,CLR,SKC,0.00,WeatherDisplay:10.37,2013-01-17 01:00:00,
2013-01-16 19:05:00,28.0,21.4,29.84,NW,309,8.7,11.5,76,0.00,CLR,SKC,0.00,WeatherDisplay:10.37,2013-01-17 01:05:00,
2013-01-16 19:10:00,27.7,21.1,29.85,WNW,301,6.5,10.4,76,0.00,CLR,SKC,0.00,WeatherDisplay:10.37,2013-01-17 01:10:00,
2013-01-16 19:15:00,27.5,20.9,29.85,NW,317,3.2,5.8,76,0.00,CLR,SKC,0.00,WeatherDisplay:10.37,2013-01-17 01:15:00,
2013-01-16 19:20:00,27.3,20.7,29.86,NW,306,5.3,9.2,76,0.00,CLR,SKC,0.00,WeatherDisplay:10.37,2013-01-17 01:20:00,
2013-01-16 19:25:00,27.2,20.6,29.86,WNW,303,6.9,9.2,76,0.00,SCT,SKC,0.00,WeatherDisplay:10.37,2013-01-17 01:25:00,
2013-01-16 19:30:00,27.2,20.6,29.87,WNW,288,8.5,11.5,76,0.00,SCT,SKC,0.00,WeatherDisplay:10.37,2013-01-17 01:30:00,
2013-01-16 19:36:00,27.1,20.5,29.88,WNW,296,9.0,13.0,76,0.00,SCT,SKC,0.00,WeatherDisplay:10.37,2013-01-17 01:36:00,
2013-01-16 19:41:00,26.9,20.3,29.88,WNW,297,7.1,10.4,76,0.00,SCT,SKC,0.00,WeatherDisplay:10.37,2013-01-17 01:41:00,
2013-01-16 19:46:00,26.4,19.9,29.90,WNW,290,9.5,12.7,76,0.00,SCT,SKC,0.00,WeatherDisplay:10.37,2013-01-17 01:46:00,
2013-01-16 19:51:00,26.2,19.7,29.90,WNW,301,6.7,11.5,76,0.00,SCT,SKC,0.00,WeatherDisplay:10.37,2013-01-17 01:51:00,
2013-01-16 19:56:00,26.0,19.5,29.90,WNW,296,6.2,9.0,76,0.00,SCT,SKC,0.00,WeatherDisplay:10.37,2013-01-17 01:56:00,
2013-01-16 20:01:00,25.9,19.4,29.90,WNW,302,7.5,10.4,76,0.00,CLR,SKC,0.00,WeatherDisplay:10.37,2013-01-17 02:01:00,
2013-01-16 20:06:00,25.8,19.3,29.90,WNW,292,6.6,8.1,76,0.00,CLR,SKC,0.00,WeatherDisplay:10.37,2013-01-17 02:06:00,
2013-01-16 20:11:00,25.7,19.2,29.91,WNW,300,8.5,11.5,76,0.00,CLR,SKC,0.00,WeatherDisplay:10.37,2013-01-17 02:11:00,
2013-01-16 20:16:00,25.5,19.0,29.91,NW,308,8.2,10.4,76,0.00,CLR,SKC,0.00,WeatherDisplay:10.37,2013-01-17 02:16:00,
2013-01-16 20:21:00,25.2,18.7,29.92,NW,307,8.2,11.5,76,0.00,SCT,SKC,0.00,WeatherDisplay:10.37,2013-01-17 02:21:00,
2013-01-16 20:26:00,24.9,18.7,29.92,NW,309,9.9,12.0,77,0.00,SCT,SKC,0.00,WeatherDisplay:10.37,2013-01-17 02:26:00,
2013-01-16 20:31:00,24.5,18.0,29.92,WNW,302,9.3,11.5,76,0.00,SCT,SKC,0.00,WeatherDisplay:10.37,2013-01-17 02:31:00,
2013-01-16 20:36:00,24.2,17.7,29.92,WNW,290,9.4,12.7,76,0.00,SCT,SKC,0.00,WeatherDisplay:10.37,2013-01-17 02:36:00,
2013-01-16 20:41:00,23.9,17.4,29.92,WNW,300,8.1,11.5,76,0.00,CLR,SKC,0.00,WeatherDisplay:10.37,2013-01-17 02:41:00,
2013-01-16 20:46:00,23.7,17.2,29.92,WNW,294,7.1,11.0,76,0.00,CLR,SKC,0.00,WeatherDisplay:10.37,2013-01-17 02:46:00,
2013-01-16 20:51:00,23.4,17.3,29.93,WNW,302,9.3,11.5,77,0.00,CLR,SKC,0.00,WeatherDisplay:10.37,2013-01-17 02:51:00,
2013-01-16 20:56:00,23.1,17.0,29.93,WNW,298,7.8,12.7,77,0.00,CLR,SKC,0.00,WeatherDisplay:10.37,2013-01-17 02:56:00,
2013-01-16 21:01:00,22.9,16.5,29.94,NW,309,5.8,8.1,76,0.00,CLR,SKC,0.00,WeatherDisplay:10.37,2013-01-17 03:01:00,
2013-01-16 21:06:00,22.7,16.6,29.94,WNW,290,8.2,10.4,77,0.01,RA,SKC,0.01,WeatherDisplay:10.37,2013-01-17 03:06:00,
2013-01-16 21:12:00,22.5,16.1,29.94,WNW,300,7.0,10.4,76,0.01,RA,SKC,0.01,WeatherDisplay:10.37,2013-01-17 03:12:00,
2013-01-16 21:17:00,22.3,15.9,29.94,WNW,303,7.2,10.4,76,0.01,CLR,SKC,0.01,WeatherDisplay:10.37,2013-01-17 03:17:00,
2013-01-16 21:22:00,22.1,15.7,29.95,WNW,303,3.9,6.9,76,0.01,CLR,SKC,0.01,WeatherDisplay:10.37,2013-01-17 03:22:00,
2013-01-16 21:27:00,21.8,15.7,29.95,NW,312,6.2,7.0,77,0.01,CLR,SKC,0.01,WeatherDisplay:10.37,2013-01-17 03:27:00,
2013-01-16 21:32:00,21.6,15.2,29.94,WNW,300,6.9,9.2,76,0.01,CLR,SKC,0.01,WeatherDisplay:10.37,2013-01-17 03:32:00,
2013-01-16 21:37:00,21.3,15.2,29.94,WNW,300,6.0,9.2,77,0.01,CLR,SKC,0.01,WeatherDisplay:10.37,2013-01-17 03:37:00,
2013-01-16 21:42:00,21.1,14.7,29.94,NW,305,5.4,6.9,76,0.01,CLR,SKC,0.01,WeatherDisplay:10.37,2013-01-17 03:42:00,
2013-01-16 21:47:00,21.0,14.9,29.94,WNW,303,5.6,7.0,77,0.01,CLR,SKC,0.01,WeatherDisplay:10.37,2013-01-17 03:47:00,
2013-01-16 21:52:00,20.8,14.7,29.95,WNW,303,4.7,6.0,77,0.01,CLR,SKC,0.01,WeatherDisplay:10.37,2013-01-17 03:52:00,
2013-01-16 21:57:00,20.6,14.5,29.95,WNW,300,6.7,9.2,77,0.01,CLR,SKC,0.01,WeatherDisplay:10.37,2013-01-17 03:57:00,
2013-01-16 22:02:00,20.3,14.2,29.95,WNW,299,7.4,9.2,77,0.01,CLR,SKC,0.01,WeatherDisplay:10.37,2013-01-17 04:02:00,
2013-01-16 22:07:00,20.1,14.0,29.95,WNW,296,7.8,10.4,77,0.00,CLR,SKC,0.01,WeatherDisplay:10.37,2013-01-17 04:07:00,
2013-01-16 22:12:00,19.8,13.8,29.94,WNW,299,7.1,9.2,77,0.00,CLR,SKC,0.01,WeatherDisplay:10.37,2013-01-17 04:12:00,
2013-01-16 22:17:00,19.6,13.6,29.94,WNW,285,7.4,9.2,77,0.00,CLR,SKC,0.01,WeatherDisplay:10.37,2013-01-17 04:17:00,
2013-01-16 22:23:00,19.4,13.1,29.95,WNW,284,6.6,9.2,76,0.00,CLR,SKC,0.01,WeatherDisplay:10.37,2013-01-17 04:23:00,
2013-01-16 22:28:00,19.2,13.2,29.96,WNW,301,6.8,9.2,77,0.00,CLR,SKC,0.01,WeatherDisplay:10.37,2013-01-17 04:28:00,
2013-01-16 22:33:00,19.1,13.1,29.97,WNW,303,5.2,8.1,77,0.00,CLR,SKC,0.01,WeatherDisplay:10.37,2013-01-17 04:33:00,
2013-01-16 22:38:00,18.9,12.9,29.97,NW,314,6.2,7.0,77,0.00,CLR,SKC,0.01,WeatherDisplay:10.37,2013-01-17 04:38:00,
2013-01-16 22:43:00,18.8,12.8,29.97,WNW,300,6.5,8.1,77,0.00,CLR,SKC,0.01,WeatherDisplay:10.37,2013-01-17 04:43:00,
2013-01-16 22:48:00,18.6,12.6,29.97,WNW,296,7.4,9.2,77,0.00,CLR,SKC,0.01,WeatherDisplay:10.37,2013-01-17 04:48:00,
2013-01-16 22:53:00,18.4,12.1,29.97,NW,304,7.6,10.4,76,0.00,CLR,SKC,0.01,WeatherDisplay:10.37,2013-01-17 04:53:00,
2013-01-16 22:58:00,18.3,12.3,29.97,WNW,294,4.9,8.1,77,0.00,CLR,SKC,0.01,WeatherDisplay:10.37,2013-01-17 04:58:00,
2013-01-16 23:00:00,18.3,12.3,29.97,NW,305,5.1,6.0,77,0.00,CLR,SKC,0.01,WeatherDisplay:10.37,2013-01-17 05:00:00,
2013-01-16 23:01:00,18.2,12.2,29.97,WNW,297,4.7,6.0,77,0.00,CLR,SKC,0.01,WeatherDisplay:10.37,2013-01-17 05:01:00,
2013-01-16 23:05:00,18.0,12.0,29.98,WNW,297,5.2,6.0,77,0.00,CLR,SKC,0.01,WeatherDisplay:10.37,2013-01-17 05:05:00,
2013-01-16 23:11:00,17.9,11.9,29.99,WNW,288,6.5,9.0,77,0.00,CLR,SKC,0.01,WeatherDisplay:10.37,2013-01-17 05:11:00,
2013-01-16 23:16:00,17.7,11.7,29.99,WNW,292,4.9,6.9,77,0.00,CLR,SKC,0.01,WeatherDisplay:10.37,2013-01-17 05:16:00,
2013-01-16 23:17:00,17.7,11.7,29.99,WNW,297,5.0,6.0,77,0.00,CLR,SKC,0.01,WeatherDisplay:10.37,2013-01-17 05:17:00,
2013-01-16 23:22:00,17.5,11.5,30.00,WNW,292,5.4,8.1,77,0.00,CLR,SKC,0.01,WeatherDisplay:10.37,2013-01-17 05:22:00,
2013-01-16 23:27:00,17.3,11.3,29.99,WNW,302,5.9,8.1,77,0.00,CLR,SKC,0.01,WeatherDisplay:10.37,2013-01-17 05:27:00,
2013-01-16 23:32:00,17.0,11.0,30.00,WNW,292,5.8,7.0,77,0.00,CLR,SKC,0.01,WeatherDisplay:10.37,2013-01-17 05:32:00,
2013-01-16 23:37:00,16.7,10.7,30.00,WNW,294,6.9,9.2,77,0.00,CLR,SKC,0.01,WeatherDisplay:10.37,2013-01-17 05:37:00,
2013-01-16 23:42:00,16.5,10.5,30.00,WNW,302,5.4,7.0,77,0.00,CLR,SKC,0.01,WeatherDisplay:10.37,2013-01-17 05:42:00,
2013-01-16 23:48:00,16.3,10.4,30.01,NW,308,5.7,8.1,77,0.00,CLR,SKC,0.01,WeatherDisplay:10.37,2013-01-17 05:48:00,
2013-01-16 23:53:00,16.1,10.4,30.01,WNW,302,6.6,8.1,78,0.00,CLR,SKC,0.01,WeatherDisplay:10.37,2013-01-17 05:53:00,
2013-01-16 23:58:00,16.0,10.1,30.01,WNW,291,6.3,8.1,77,0.00,CLR,SKC,0.01,WeatherDisplay:10.37,2013-01-17 05:58:00,